This is the latest recevied weather packets stored in our database for station/object KJ6APE. If no packets are shown the sender has not sent any weather packets the latest 10 day(s).
| Time | Temp. | Humidity | Pressure | Rain* | Wind** | Luminosity | Snow |
|---|---|---|---|---|---|---|---|
| 1777653968 | 17.78° C | 66% | 1015.2 hPa | 0 mm | - | 565 W/m² | - |
| 1777653664 | 18.33° C | 64% | 1015 hPa | 0 mm | - | 548 W/m² | - |
| 1777653361 | 17.78° C | 68% | 1015.1 hPa | 0 mm | - | 530 W/m² | - |
| 1777653058 | 18.33° C | 65% | 1015.1 hPa | 0 mm | - | 513 W/m² | - |
| 1777652754 | 17.78° C | 66% | 1015.1 hPa | 0 mm | - | 489 W/m² | - |
| 1777652451 | 17.78° C | 66% | 1015.1 hPa | 0 mm | - | 475 W/m² | - |
| 1777652148 | 17.22° C | 67% | 1014.9 hPa | 0 mm | - | 452 W/m² | - |
| 1777651845 | 17.22° C | 67% | 1015 hPa | 0 mm | - | 429 W/m² | - |
| 1777651542 | 16.67° C | 69% | 1014.8 hPa | 0 mm | - | 406 W/m² | - |
| 1777651239 | 16.67° C | 69% | 1015.1 hPa | 0 mm | - | 387 W/m² | - |
| 1777650935 | 16.67° C | 70% | 1014.9 hPa | 0 mm | - | 366 W/m² | - |
| 1777650633 | 16.11° C | 70% | 1014.9 hPa | 0 mm | - | 346 W/m² | - |
| 1777650330 | 16.11° C | 70% | 1015.1 hPa | 0 mm | - | 331 W/m² | - |
| 1777650027 | 16.11° C | 71% | 1015.1 hPa | 0 mm | - | 315 W/m² | - |
| 1777649725 | 15.56° C | 71% | 1015.1 hPa | 0 mm | - | 292 W/m² | - |
| 1777649420 | 15.56° C | 71% | 1014.9 hPa | 0 mm | - | 272 W/m² | - |
| 1777649118 | 15.56° C | 71% | 1014.9 hPa | 0 mm | - | 254 W/m² | - |
| 1777648815 | 15.56° C | 73% | 1014.7 hPa | 0 mm | - | 235 W/m² | - |
| 1777648512 | 15.56° C | 72% | 1015 hPa | 0 mm | - | 222 W/m² | - |
| 1777648209 | 15.56° C | 74% | 1014.7 hPa | 0 mm | - | 201 W/m² | - |
| 1777647903 | 15.56° C | 74% | 1014.6 hPa | 0 mm | - | 183 W/m² | - |
| 1777647600 | 15.56° C | 73% | 1014.6 hPa | 0 mm | - | 166 W/m² | - |
| 1777647297 | 15° C | 74% | 1014.6 hPa | 0 mm | - | 148 W/m² | - |
| 1777646995 | 15° C | 75% | 1014.6 hPa | 0 mm | - | 135 W/m² | - |
| 1777646690 | 15° C | 76% | 1014.6 hPa | 0 mm | - | 120 W/m² | - |
* Rain latest hour (hover to see other rain measurements)
** Current wind speed in m/s (hover to see current wind gust speed)